Time;durP1;ratioP1;P1;durP2;ratioP2;P2;SDS_P1;SDS_P2;PMS_P1;PMS_P2;Temp;Humidity;BMP_temperature;BMP_pressure;BME280_temperature;BME280_humidity;BME280_pressure;Samples;Min_cycle;Max_cycle;Signal;HPM_P1;HPM_P2
2021/05/11 00:00:37;;;;;;;0.93;0.45;;;20.00;73.40;;;;;;5077396;28;20032;-80
2021/05/11 00:03:03;;;;;;;1.38;0.50;;;20.00;73.30;;;;;;5076232;28;20547;-81
2021/05/11 00:05:30;;;;;;;0.93;0.43;;;20.00;73.20;;;;;;5073384;28;20056;-81
2021/05/11 00:07:57;;;;;;;2.47;0.40;;;20.00;73.10;;;;;;5085509;28;20031;-80
2021/05/11 00:10:24;;;;;;;2.58;0.65;;;19.90;73.00;;;;;;5091974;28;20028;-81
2021/05/11 00:12:50;;;;;;;1.13;0.40;;;19.90;72.90;;;;;;5077776;28;20073;-80
2021/05/11 00:15:17;;;;;;;5.57;0.90;;;19.90;72.90;;;;;;5089225;28;20094;-81
2021/05/11 00:17:43;;;;;;;1.85;0.45;;;19.90;72.80;;;;;;5091600;28;20420;-80
2021/05/11 00:20:10;;;;;;;0.75;0.40;;;19.90;72.70;;;;;;5093670;28;20551;-80
2021/05/11 00:22:36;;;;;;;1.10;0.40;;;19.90;72.50;;;;;;5074956;28;20048;-80
2021/05/11 00:25:01;;;;;;;1.63;0.40;;;19.90;72.50;;;;;;5073537;28;20028;-80
2021/05/11 00:27:27;;;;;;;1.55;0.45;;;19.90;72.40;;;;;;5086177;28;20395;-79
2021/05/11 00:29:53;;;;;;;1.15;0.60;;;19.90;72.40;;;;;;5083771;28;20031;-80
2021/05/11 00:32:18;;;;;;;0.90;0.40;;;19.90;72.30;;;;;;5081188;28;20040;-78
2021/05/11 00:34:44;;;;;;;2.55;0.40;;;19.90;72.20;;;;;;5093034;28;20028;-78
2021/05/11 00:37:09;;;;;;;1.50;0.50;;;19.90;72.20;;;;;;5091811;28;20060;-80
2021/05/11 00:39:35;;;;;;;2.30;0.30;;;19.80;72.10;;;;;;5091656;28;20569;-79
2021/05/11 00:42:01;;;;;;;1.83;0.88;;;19.90;72.10;;;;;;5082503;28;20028;-79
2021/05/11 00:44:28;;;;;;;0.82;0.40;;;19.80;72.00;;;;;;5089478;28;20506;-80
2021/05/11 00:46:59;;;;;;;1.75;0.50;;;19.80;71.90;;;;;;5091167;28;20020;-80
2021/05/11 00:49:29;;;;;;;2.33;0.80;;;19.80;71.80;;;;;;5090804;28;20498;-79
2021/05/11 00:51:56;;;;;;;0.80;0.40;;;19.80;71.80;;;;;;5079029;28;20029;-80
2021/05/11 00:54:23;;;;;;;1.20;0.45;;;19.80;71.70;;;;;;5072295;28;20103;-81
2021/05/11 00:56:50;;;;;;;1.25;0.30;;;19.80;71.60;;;;;;5083905;28;20016;-80
2021/05/11 00:59:19;;;;;;;1.90;0.55;;;19.80;71.50;;;;;;5072648;28;20107;-80
2021/05/11 01:01:45;;;;;;;1.05;0.43;;;19.80;71.50;;;;;;5080388;28;20411;-79
2021/05/11 01:04:11;;;;;;;1.00;0.40;;;19.70;71.40;;;;;;5084815;28;20024;-79
2021/05/11 01:06:37;;;;;;;0.82;0.40;;;19.80;71.30;;;;;;5091074;28;20104;-79
2021/05/11 01:09:04;;;;;;;2.00;0.50;;;19.70;71.20;;;;;;5091107;28;20491;-80
2021/05/11 01:11:31;;;;;;;1.05;0.43;;;19.70;71.20;;;;;;5082200;28;20139;-80
2021/05/11 01:13:57;;;;;;;1.73;0.45;;;19.70;71.10;;;;;;5091042;28;20494;-80
2021/05/11 01:16:25;;;;;;;1.30;0.40;;;19.70;70.90;;;;;;5082704;28;20097;-80
2021/05/11 01:18:51;;;;;;;0.70;0.40;;;19.70;70.90;;;;;;5071954;28;20427;-80
2021/05/11 01:21:46;;;;;;;0.70;0.30;;;19.70;70.80;;;;;;5076835;28;20073;-80
2021/05/11 01:46:05;;;;;;;0.70;0.35;;;19.60;70.30;;;;;;5071134;28;20388;-81
2021/05/11 02:25:09;;;;;;;1.73;0.57;;;19.50;69.70;;;;;;5086966;28;20162;-79
2021/05/11 02:27:37;;;;;;;2.33;0.90;;;19.50;70.40;;;;;;5076293;28;20024;-80
2021/05/11 02:30:08;;;;;;;1.25;0.45;;;19.50;69.60;;;;;;5089624;28;20024;-80
2021/05/11 02:32:38;;;;;;;1.27;0.50;;;19.50;69.60;;;;;;5082984;28;20488;-80
2021/05/11 02:35:05;;;;;;;1.27;0.40;;;19.50;69.60;;;;;;5087941;28;20028;-79
2021/05/11 02:37:32;;;;;;;1.35;0.40;;;19.40;69.50;;;;;;5086370;28;20443;-79
2021/05/11 02:39:57;;;;;;;1.95;0.68;;;19.50;69.60;;;;;;5089280;28;20041;-82
2021/05/11 02:42:23;;;;;;;1.60;0.50;;;19.40;69.40;;;;;;5077142;28;20025;-80
2021/05/11 02:44:49;;;;;;;1.65;0.50;;;19.40;69.40;;;;;;5091017;28;20073;-80
2021/05/11 02:47:15;;;;;;;1.20;0.60;;;19.40;69.40;;;;;;5087737;28;20446;-80
2021/05/11 02:49:44;;;;;;;1.20;0.68;;;19.40;69.40;;;;;;5088045;28;20035;-80
2021/05/11 02:52:10;;;;;;;1.42;0.50;;;19.40;69.40;;;;;;5071116;28;20021;-80
2021/05/11 02:54:36;;;;;;;0.80;0.55;;;19.40;69.40;;;;;;5086942;28;20060;-80
2021/05/11 02:57:02;;;;;;;2.10;0.55;;;19.40;69.30;;;;;;5077444;28;20512;-80
2021/05/11 02:59:28;;;;;;;0.98;0.40;;;19.40;69.30;;;;;;5085632;28;20040;-81
2021/05/11 03:01:53;;;;;;;1.27;0.40;;;19.40;69.30;;;;;;5079405;28;20030;-80
2021/05/11 03:04:19;;;;;;;1.20;0.40;;;19.40;69.30;;;;;;5082300;28;20028;-80
2021/05/11 03:06:44;;;;;;;1.55;0.45;;;19.40;69.30;;;;;;5070619;28;20040;-80
2021/05/11 03:09:10;;;;;;;2.00;0.70;;;19.40;69.20;;;;;;5075537;28;20030;-81
2021/05/11 03:11:36;;;;;;;1.42;0.40;;;19.40;69.30;;;;;;5064831;28;20071;-81
2021/05/11 03:14:01;;;;;;;2.25;0.50;;;19.40;69.20;;;;;;5068040;28;20056;-80
2021/05/11 03:16:27;;;;;;;4.05;0.73;;;19.40;69.20;;;;;;5070037;28;20021;-81
2021/05/11 03:18:53;;;;;;;2.08;1.10;;;19.40;69.20;;;;;;5078302;28;20070;-82
2021/05/11 03:21:19;;;;;;;3.17;0.70;;;19.40;69.10;;;;;;5077317;28;20032;-82
2021/05/11 03:23:44;;;;;;;2.45;1.02;;;19.30;69.20;;;;;;5074286;28;20025;-80
2021/05/11 03:26:10;;;;;;;1.75;0.80;;;19.40;69.30;;;;;;5076519;28;20062;-80
2021/05/11 03:28:35;;;;;;;1.08;0.40;;;19.30;69.10;;;;;;5080728;28;20016;-80
2021/05/11 03:31:01;;;;;;;1.98;0.45;;;19.40;69.10;;;;;;5074640;28;20068;-80
2021/05/11 03:33:27;;;;;;;1.67;0.63;;;19.30;68.90;;;;;;5092410;28;20024;-79
2021/05/11 03:35:52;;;;;;;2.13;0.47;;;19.40;69.10;;;;;;5089299;28;20529;-79
2021/05/11 03:38:18;;;;;;;1.15;0.40;;;19.30;68.90;;;;;;5081528;28;20035;-80
2021/05/11 03:40:43;;;;;;;2.60;0.68;;;19.30;68.90;;;;;;5091778;28;20078;-78
2021/05/11 03:43:16;;;;;;;1.27;0.60;;;19.30;68.90;;;;;;5088869;28;20054;-80
2021/05/11 03:45:50;;;;;;;1.00;0.45;;;19.30;68.90;;;;;;5093037;28;20564;-80
2021/05/11 03:48:16;;;;;;;1.20;0.50;;;19.30;68.90;;;;;;5093951;28;20367;-80
2021/05/11 03:50:41;;;;;;;0.85;0.50;;;19.30;68.90;;;;;;5077264;28;20024;-79
2021/05/11 03:53:07;;;;;;;2.03;0.65;;;19.30;68.90;;;;;;5073846;28;20020;-80
2021/05/11 03:55:32;;;;;;;1.77;0.40;;;19.20;68.80;;;;;;5077346;28;20046;-80
2021/05/11 03:57:58;;;;;;;4.03;0.60;;;19.30;68.90;;;;;;5093829;28;20051;-79
2021/05/11 04:00:24;;;;;;;1.88;0.60;;;19.20;68.80;;;;;;5088202;28;20117;-80
2021/05/11 04:02:49;;;;;;;2.65;0.50;;;19.30;69.50;;;;;;5071729;28;20074;-79
2021/05/11 04:05:16;;;;;;;1.23;0.40;;;19.20;68.70;;;;;;5086412;28;20556;-79
2021/05/11 04:07:43;;;;;;;1.23;0.40;;;19.20;68.70;;;;;;5091742;28;20495;-80
2021/05/11 04:10:18;;;;;;;1.17;0.50;;;19.20;68.70;;;;;;5086381;28;20039;-80
2021/05/11 04:13:06;;;;;;;0.95;0.40;;;19.20;68.70;;;;;;5087124;28;20122;-77
2021/05/11 04:18:16;;;;;;;1.05;0.50;;;19.20;68.60;;;;;;5072909;28;20032;-80
2021/05/11 04:20:42;;;;;;;1.38;0.75;;;19.20;68.50;;;;;;5078470;28;20032;-79
2021/05/11 04:23:08;;;;;;;1.77;0.57;;;19.20;69.20;;;;;;5091391;28;20039;-80
2021/05/11 04:25:33;;;;;;;1.98;0.50;;;19.20;68.40;;;;;;5093045;28;20038;-80
2021/05/11 04:27:59;;;;;;;2.28;0.60;;;19.20;68.40;;;;;;5092148;28;20031;-80
2021/05/11 04:30:25;;;;;;;1.05;0.57;;;19.20;68.40;;;;;;5074888;28;20170;-79
2021/05/11 04:32:50;;;;;;;1.88;0.60;;;19.20;68.40;;;;;;5090519;28;20048;-80
2021/05/11 04:35:16;;;;;;;1.50;0.55;;;19.20;68.40;;;;;;5079939;28;20020;-80
2021/05/11 04:37:43;;;;;;;2.45;0.47;;;19.20;68.40;;;;;;5074747;28;20025;-81
2021/05/11 04:40:09;;;;;;;2.78;0.60;;;19.20;68.40;;;;;;5073051;28;20488;-81
2021/05/11 04:42:35;;;;;;;1.13;0.60;;;19.20;68.30;;;;;;5087735;28;20032;-79
2021/05/11 04:45:01;;;;;;;1.63;0.57;;;19.20;68.30;;;;;;5092144;28;20392;-79
2021/05/11 04:47:48;;;;;;;3.75;0.77;;;19.20;68.30;;;;;;5091913;28;20054;-80
2021/05/11 04:50:16;;;;;;;1.70;0.63;;;19.20;68.30;;;;;;5075290;28;20021;-77
2021/05/11 04:52:42;;;;;;;1.98;0.60;;;19.20;68.30;;;;;;5072855;28;20017;-79
2021/05/11 04:55:09;;;;;;;1.95;0.68;;;19.20;68.30;;;;;;5074624;28;20055;-80
2021/05/11 04:57:35;;;;;;;2.00;0.65;;;19.20;68.20;;;;;;5074164;28;20028;-79
2021/05/11 05:00:03;;;;;;;0.98;0.40;;;19.10;68.10;;;;;;5070834;28;20381;-78
2021/05/11 05:02:29;;;;;;;1.23;0.60;;;19.20;68.20;;;;;;5085542;28;20029;-80
2021/05/11 05:04:54;;;;;;;1.35;0.68;;;19.10;68.10;;;;;;5078550;28;20020;-78
2021/05/11 05:07:20;;;;;;;1.63;0.70;;;19.10;68.20;;;;;;5092314;28;20097;-80
2021/05/11 05:09:45;;;;;;;2.30;0.75;;;19.20;68.20;;;;;;5080406;28;20028;-80
2021/05/11 05:12:11;;;;;;;3.17;0.70;;;19.10;68.10;;;;;;5091458;28;20032;-80
2021/05/11 05:14:37;;;;;;;2.25;0.60;;;19.20;68.20;;;;;;5092261;28;20110;-80
2021/05/11 05:17:02;;;;;;;2.78;0.70;;;19.10;68.10;;;;;;5079320;28;20088;-82
2021/05/11 05:19:28;;;;;;;0.95;0.50;;;19.20;68.20;;;;;;5088872;28;20039;-82
2021/05/11 05:21:53;;;;;;;2.45;0.82;;;19.20;68.20;;;;;;5087964;28;20455;-82
2021/05/11 05:24:31;;;;;;;1.73;0.80;;;19.10;68.10;;;;;;5072449;28;20053;-80
2021/05/11 05:27:02;;;;;;;1.80;0.40;;;19.10;68.00;;;;;;5092307;28;20024;-81
2021/05/11 05:29:27;;;;;;;1.05;0.65;;;19.10;68.00;;;;;;5084731;28;20492;-84
2021/05/11 05:31:53;;;;;;;2.97;0.70;;;19.20;68.00;;;;;;5086483;28;20059;-83
2021/05/11 05:34:19;;;;;;;1.95;0.63;;;19.10;68.00;;;;;;5089947;28;20506;-83
2021/05/11 05:36:44;;;;;;;2.05;1.00;;;19.10;68.00;;;;;;5081363;28;20029;-79
2021/05/11 05:39:10;;;;;;;2.28;0.70;;;19.10;68.00;;;;;;5075267;28;20081;-77
2021/05/11 05:41:36;;;;;;;1.67;0.75;;;19.20;68.10;;;;;;5083090;28;20494;-81
2021/05/11 05:44:02;;;;;;;6.88;1.10;;;19.10;68.00;;;;;;5091915;28;20021;-83
2021/05/11 05:46:27;;;;;;;1.25;0.63;;;19.20;68.00;;;;;;5086941;28;20047;-82
2021/05/11 05:48:53;;;;;;;1.48;0.60;;;19.10;67.90;;;;;;5091651;28;20016;-81
2021/05/11 05:51:20;;;;;;;2.33;0.70;;;19.20;68.20;;;;;;5087424;28;20059;-77
2021/05/11 05:53:45;;;;;;;1.50;0.60;;;19.20;68.40;;;;;;5091634;28;20463;-79
2021/05/11 05:56:13;;;;;;;1.85;0.70;;;19.30;68.40;;;;;;5090769;28;20067;-79
2021/05/11 05:58:38;;;;;;;2.35;0.80;;;19.30;68.20;;;;;;5091642;28;20081;-80
2021/05/11 06:01:09;;;;;;;4.00;0.73;;;19.40;68.30;;;;;;5088839;28;20040;-81
2021/05/11 06:06:07;;;;;;;2.55;0.50;;;19.50;68.50;;;;;;5051370;28;20048;-81
2021/05/11 06:08:33;;;;;;;2.33;0.80;;;19.50;68.90;;;;;;5052390;28;20013;-82
2021/05/11 06:11:05;;;;;;;1.83;0.70;;;19.60;68.80;;;;;;5089834;28;20101;-83
2021/05/11 06:13:37;;;;;;;2.33;0.50;;;19.70;68.90;;;;;;5071930;28;20029;-77
2021/05/11 06:18:48;;;;;;;2.33;0.70;;;19.80;68.90;;;;;;5088834;28;20449;-79
2021/05/11 06:21:13;;;;;;;3.38;0.90;;;19.90;68.90;;;;;;5077997;28;20028;-78
2021/05/11 06:23:39;;;;;;;4.43;1.45;;;19.90;69.10;;;;;;5091484;28;20067;-77
2021/05/11 06:26:05;;;;;;;3.30;1.33;;;20.00;69.00;;;;;;5089117;28;20031;-78
2021/05/11 06:28:36;;;;;;;3.13;1.30;;;20.10;68.80;;;;;;5090948;28;20016;-79
2021/05/11 06:31:02;;;;;;;2.95;1.40;;;20.10;68.60;;;;;;5089208;28;20062;-77
2021/05/11 06:33:27;;;;;;;6.78;1.77;;;20.20;68.60;;;;;;5088897;28;20055;-77
2021/05/11 06:35:54;;;;;;;5.38;2.33;;;20.20;68.60;;;;;;5070367;28;20032;-77
2021/05/11 06:38:19;;;;;;;5.35;2.10;;;20.30;68.70;;;;;;5067105;28;20055;-77
2021/05/11 06:40:45;;;;;;;6.40;2.40;;;20.20;68.40;;;;;;5066931;28;20040;-78
2021/05/11 06:43:11;;;;;;;7.35;2.42;;;20.30;68.30;;;;;;5068269;28;20028;-78
2021/05/11 06:48:32;;;;;;;4.25;2.17;;;20.30;68.10;;;;;;5070486;28;20108;-76
2021/05/11 06:53:39;;;;;;;8.90;2.13;;;20.40;68.30;;;;;;5080750;28;20057;-75
2021/05/11 06:56:07;;;;;;;11.77;2.08;;;20.40;68.50;;;;;;5095107;28;20039;-75
2021/05/11 06:58:33;;;;;;;8.52;2.47;;;20.50;68.60;;;;;;5088364;28;20024;-75
2021/05/11 07:00:59;;;;;;;6.22;1.98;;;20.50;68.50;;;;;;5073137;28;20500;-74
2021/05/11 07:03:25;;;;;;;6.05;2.15;;;20.40;68.60;;;;;;5072213;28;20065;-75
2021/05/11 07:05:52;;;;;;;3.35;1.73;;;20.40;68.60;;;;;;5073568;28;20027;-76
2021/05/11 07:08:27;;;;;;;4.25;1.83;;;20.40;68.30;;;;;;5073604;28;20483;-76
2021/05/11 07:10:56;;;;;;;7.72;1.85;;;20.50;68.40;;;;;;5073595;28;20146;-75
2021/05/11 07:13:21;;;;;;;5.60;1.60;;;20.50;68.20;;;;;;5072214;28;20091;-76
2021/05/11 07:15:49;;;;;;;3.65;1.50;;;20.40;68.00;;;;;;5073725;28;20012;-75
2021/05/11 07:18:20;;;;;;;8.45;1.50;;;20.50;68.00;;;;;;5073159;28;20028;-75
2021/05/11 07:20:47;;;;;;;4.90;1.67;;;20.40;67.80;;;;;;5072413;28;20541;-77
2021/05/11 07:23:21;;;;;;;5.00;1.80;;;20.40;67.60;;;;;;5071015;28;20025;-78
2021/05/11 07:30:53;;;;;;;4.32;1.42;;;20.50;67.50;;;;;;5073172;28;20568;-77
2021/05/11 07:33:20;;;;;;;2.92;1.23;;;20.40;67.40;;;;;;5070575;28;20039;-77
2021/05/11 07:35:45;;;;;;;5.93;2.05;;;20.50;67.40;;;;;;5073554;28;20078;-77
2021/05/11 07:38:11;;;;;;;3.63;1.30;;;20.50;67.40;;;;;;5073071;28;20028;-76
2021/05/11 07:40:37;;;;;;;4.43;1.48;;;20.50;67.40;;;;;;5073339;28;20104;-77
2021/05/11 07:43:03;;;;;;;6.20;1.20;;;20.50;67.40;;;;;;5073275;28;20028;-77
2021/05/11 07:45:51;;;;;;;3.08;1.17;;;20.50;67.30;;;;;;5072133;28;20040;-76
2021/05/11 07:51:39;;;;;;;5.55;1.33;;;20.50;67.30;;;;;;5071705;28;20109;-77
2021/05/11 08:15:36;;;;;;;3.90;1.73;;;20.50;67.00;;;;;;5052730;28;20059;-76
2021/05/11 08:28:39;;;;;;;4.82;1.75;;;20.50;66.80;;;;;;5073144;28;20024;-76
2021/05/11 08:31:04;;;;;;;4.40;1.98;;;20.50;66.70;;;;;;5073105;28;20036;-77
2021/05/11 08:33:30;;;;;;;3.65;1.50;;;20.60;66.70;;;;;;5072184;28;20071;-77
2021/05/11 08:35:56;;;;;;;4.22;1.58;;;20.60;66.70;;;;;;5071800;28;20124;-76
2021/05/11 08:38:21;;;;;;;5.50;1.63;;;20.60;66.70;;;;;;5072884;28;20021;-76
2021/05/11 08:40:47;;;;;;;3.00;1.30;;;20.60;66.60;;;;;;5072864;28;20492;-76
2021/05/11 08:43:35;;;;;;;5.50;1.60;;;20.60;66.50;;;;;;5072490;28;20496;-76
2021/05/11 08:46:05;;;;;;;3.92;1.30;;;20.60;66.50;;;;;;5072104;28;20024;-76
2021/05/11 08:48:32;;;;;;;3.83;1.33;;;20.60;66.50;;;;;;5072276;28;20052;-76
2021/05/11 10:46:57;;;;;;;3.60;1.20;;;21.20;65.00;;;;;;5079192;28;20063;-77
2021/05/11 10:49:40;;;;;;;5.18;1.50;;;21.20;64.70;;;;;;5070405;28;20028;-77
2021/05/11 10:52:17;;;;;;;5.28;1.38;;;21.20;64.60;;;;;;5071120;28;20027;-77
2021/05/11 10:55:12;;;;;;;3.67;1.67;;;21.20;64.60;;;;;;5071256;28;20036;-77
2021/05/11 11:00:45;;;;;;;3.20;1.30;;;21.30;64.50;;;;;;5070811;28;20116;-76
2021/05/11 11:03:17;;;;;;;4.13;1.40;;;21.30;64.60;;;;;;5071348;28;20472;-76
2021/05/11 11:05:52;;;;;;;4.78;1.48;;;21.40;64.40;;;;;;5070060;28;20400;-77
2021/05/11 11:08:37;;;;;;;5.47;1.70;;;21.50;64.40;;;;;;5066371;28;20119;-77
2021/05/11 11:11:19;;;;;;;4.22;1.75;;;21.50;65.10;;;;;;5067529;28;20020;-77
2021/05/11 11:13:50;;;;;;;5.20;1.55;;;21.50;65.20;;;;;;5068008;28;20102;-76
2021/05/11 11:16:16;;;;;;;3.33;1.13;;;21.60;65.30;;;;;;5066310;28;20388;-76
2021/05/11 11:18:44;;;;;;;3.38;1.30;;;21.60;65.10;;;;;;5069264;28;20020;-77
2021/05/11 11:23:43;;;;;;;5.38;1.10;;;21.60;64.80;;;;;;5068062;28;20195;-77
2021/05/11 11:26:10;;;;;;;5.38;1.67;;;21.60;65.00;;;;;;5068851;28;20032;-76
2021/05/11 11:28:36;;;;;;;5.65;1.70;;;21.60;64.90;;;;;;5068462;28;20025;-76
2021/05/11 11:31:19;;;;;;;3.78;1.48;;;21.60;65.00;;;;;;5069024;28;20021;-76
2021/05/11 11:33:45;;;;;;;3.65;1.30;;;21.60;65.10;;;;;;5067784;28;20060;-77
2021/05/11 11:36:31;;;;;;;3.97;1.40;;;21.60;65.10;;;;;;5079409;28;20055;-77
2021/05/11 11:38:58;;;;;;;6.15;1.45;;;21.60;65.00;;;;;;5065678;28;20444;-78
2021/05/11 11:41:25;;;;;;;3.70;1.70;;;21.60;64.90;;;;;;5071194;28;20036;-78
2021/05/11 11:43:52;;;;;;;2.28;0.85;;;21.60;64.90;;;;;;5072357;28;20466;-76
2021/05/11 11:46:25;;;;;;;5.03;1.17;;;21.70;64.90;;;;;;5069165;28;20033;-78
2021/05/11 11:49:01;;;;;;;3.42;1.27;;;21.70;64.70;;;;;;5072123;28;21041;-77
2021/05/11 11:51:32;;;;;;;2.75;0.88;;;21.70;64.60;;;;;;5070332;28;20133;-77
2021/05/11 11:55:02;;;;;;;3.25;0.77;;;21.70;64.40;;;;;;5073852;28;20064;-76
2021/05/11 12:00:09;;;;;;;4.38;1.17;;;21.80;64.30;;;;;;5073127;28;20404;-76
2021/05/11 12:02:37;;;;;;;3.47;1.35;;;21.80;64.30;;;;;;5071647;28;20031;-77
2021/05/11 12:05:13;;;;;;;4.00;1.48;;;21.80;64.20;;;;;;5073764;28;20024;-77
2021/05/11 12:10:24;;;;;;;3.22;1.02;;;21.80;64.50;;;;;;5073003;28;20016;-76
2021/05/11 12:12:50;;;;;;;4.15;1.27;;;21.80;64.70;;;;;;5073668;28;20020;-76
2021/05/11 12:15:20;;;;;;;2.03;0.88;;;21.90;64.60;;;;;;5072047;28;20055;-77
2021/05/11 12:17:57;;;;;;;3.78;0.88;;;21.90;64.20;;;;;;5071012;28;20024;-76
2021/05/11 12:20:26;;;;;;;2.97;0.82;;;21.90;63.60;;;;;;5063253;28;20068;-76
2021/05/11 12:23:22;;;;;;;3.85;1.38;;;21.90;63.70;;;;;;5072230;28;20055;-77
2021/05/11 12:25:58;;;;;;;3.42;0.90;;;21.90;64.10;;;;;;5062984;28;20039;-77
2021/05/11 12:28:30;;;;;;;3.17;1.17;;;21.90;63.70;;;;;;5073044;28;20017;-76
2021/05/11 12:30:56;;;;;;;2.90;0.85;;;22.00;63.70;;;;;;5072536;28;20059;-76
2021/05/11 12:33:36;;;;;;;2.10;0.77;;;22.00;63.50;;;;;;5072504;28;20029;-77
2021/05/11 12:36:24;;;;;;;2.75;0.90;;;22.00;63.20;;;;;;5072548;28;20041;-76
2021/05/11 12:39:12;;;;;;;3.33;1.17;;;22.10;63.30;;;;;;5073443;28;20023;-76
2021/05/11 12:41:38;;;;;;;3.35;0.93;;;22.10;63.40;;;;;;5071746;28;20064;-77
2021/05/11 12:44:04;;;;;;;2.90;0.80;;;22.10;63.00;;;;;;5072668;28;20554;-77
2021/05/11 12:46:32;;;;;;;2.78;0.85;;;22.10;63.30;;;;;;5072681;28;20020;-77
2021/05/11 12:49:01;;;;;;;3.80;0.93;;;22.20;63.00;;;;;;5072107;28;20078;-77
2021/05/11 12:51:32;;;;;;;2.45;0.93;;;22.10;62.80;;;;;;5072016;28;20033;-77
2021/05/11 12:54:00;;;;;;;3.45;1.02;;;22.10;62.80;;;;;;5068766;28;20115;-77
2021/05/11 12:56:45;;;;;;;1.67;0.63;;;22.10;62.70;;;;;;5072634;28;20078;-77
2021/05/11 12:59:14;;;;;;;2.40;0.73;;;22.00;62.80;;;;;;5073035;28;20052;-77
2021/05/11 13:30:40;;;;;;;2.75;0.80;;;22.00;61.90;;;;;;5071503;28;20103;-78
2021/05/11 13:35:32;;;;;;;2.58;0.70;;;22.10;61.40;;;;;;5070606;28;20052;-78
2021/05/11 13:37:58;;;;;;;2.58;0.95;;;22.10;61.20;;;;;;5071390;28;20032;-78
2021/05/11 13:40:24;;;;;;;3.30;0.70;;;22.20;61.00;;;;;;5071551;28;20028;-79
2021/05/11 13:42:51;;;;;;;2.05;0.60;;;22.20;60.80;;;;;;5071826;28;20074;-78
2021/05/11 13:45:17;;;;;;;1.98;0.70;;;22.20;60.80;;;;;;5071041;28;20115;-77
2021/05/11 13:47:55;;;;;;;2.58;0.88;;;22.20;60.80;;;;;;5071141;28;20117;-77
2021/05/11 13:50:23;;;;;;;2.95;1.00;;;22.10;60.80;;;;;;5071512;28;20475;-79
2021/05/11 13:52:48;;;;;;;3.10;0.73;;;22.10;60.90;;;;;;5071042;28;20016;-78
2021/05/11 13:55:22;;;;;;;5.43;0.75;;;22.10;61.00;;;;;;5071216;28;20414;-78
2021/05/11 14:03:16;;;;;;;2.13;0.60;;;22.20;60.30;;;;;;5068046;28;20154;-79
2021/05/11 14:05:41;;;;;;;2.70;0.80;;;22.30;60.10;;;;;;5071256;28;20199;-79
2021/05/11 14:08:07;;;;;;;2.38;0.68;;;22.30;60.20;;;;;;5071270;28;20028;-77
2021/05/11 14:10:33;;;;;;;2.53;0.65;;;22.40;60.00;;;;;;5071143;28;20028;-78
2021/05/11 14:12:58;;;;;;;2.10;0.70;;;22.40;59.80;;;;;;5070725;28;20484;-77
2021/05/11 14:15:24;;;;;;;3.58;0.80;;;22.50;59.60;;;;;;5070369;28;20044;-78
2021/05/11 14:17:49;;;;;;;2.08;0.63;;;22.50;59.50;;;;;;5069192;28;20047;-78
2021/05/11 14:20:15;;;;;;;1.85;0.60;;;22.50;59.40;;;;;;5070401;28;20070;-78
2021/05/11 14:22:41;;;;;;;3.50;1.00;;;22.50;59.30;;;;;;5071108;28;20103;-77
2021/05/11 14:25:07;;;;;;;4.35;0.73;;;22.50;59.40;;;;;;5071226;28;20029;-77
2021/05/11 14:27:34;;;;;;;2.60;0.60;;;22.50;59.40;;;;;;5069454;28;20107;-78
2021/05/11 14:29:59;;;;;;;1.52;0.50;;;22.50;59.40;;;;;;5071163;28;20040;-78
2021/05/11 14:32:25;;;;;;;3.10;0.80;;;22.40;59.40;;;;;;5069603;28;20055;-78
2021/05/11 14:34:50;;;;;;;2.97;0.68;;;22.40;59.40;;;;;;5070191;28;20025;-77
2021/05/11 14:37:17;;;;;;;1.88;0.73;;;22.30;59.40;;;;;;5070891;28;20571;-78
2021/05/11 14:39:43;;;;;;;2.65;0.60;;;22.30;59.50;;;;;;5071021;28;20036;-78
2021/05/11 14:42:08;;;;;;;1.30;0.50;;;22.20;59.50;;;;;;5070782;28;20094;-78
2021/05/11 14:44:34;;;;;;;2.42;0.50;;;22.20;59.50;;;;;;5070140;28;20048;-77
2021/05/11 14:47:00;;;;;;;0.90;0.43;;;22.10;59.70;;;;;;5069854;28;20020;-77
2021/05/11 14:49:26;;;;;;;2.10;0.75;;;22.10;59.90;;;;;;5069556;28;20345;-77
2021/05/11 14:51:52;;;;;;;3.00;0.63;;;22.00;59.90;;;;;;5070979;28;20024;-77
2021/05/11 14:54:18;;;;;;;1.13;0.40;;;22.00;59.90;;;;;;5070582;28;20147;-77
2021/05/11 14:56:43;;;;;;;1.67;0.60;;;21.90;59.90;;;;;;5070381;28;20457;-77
2021/05/11 14:59:10;;;;;;;4.57;0.70;;;21.90;60.00;;;;;;5068907;28;20028;-78
2021/05/11 15:01:36;;;;;;;2.88;0.47;;;21.90;60.10;;;;;;5070325;28;20020;-77
2021/05/11 15:04:02;;;;;;;2.72;0.50;;;21.80;60.10;;;;;;5070870;28;20013;-77
2021/05/11 15:06:28;;;;;;;1.15;0.50;;;21.80;60.30;;;;;;5068268;28;20036;-78
2021/05/11 15:08:54;;;;;;;1.80;0.45;;;21.80;60.30;;;;;;5069681;28;20043;-78
2021/05/11 15:11:20;;;;;;;2.53;0.73;;;21.70;60.30;;;;;;5069796;28;20028;-78
2021/05/11 15:13:47;;;;;;;2.75;0.80;;;21.70;60.20;;;;;;5070927;28;20070;-77
2021/05/11 15:16:19;;;;;;;2.67;0.90;;;21.70;60.10;;;;;;5074232;28;20546;-77
2021/05/11 15:18:44;;;;;;;3.55;0.93;;;21.70;60.20;;;;;;5074019;28;20035;-77
2021/05/11 15:21:10;;;;;;;2.33;0.60;;;21.70;60.20;;;;;;5074665;28;20428;-78
2021/05/11 15:23:36;;;;;;;5.28;0.68;;;21.70;60.00;;;;;;5073851;28;20476;-79
2021/05/11 15:26:03;;;;;;;2.55;0.50;;;21.70;59.90;;;;;;5074208;28;20032;-78
2021/05/11 15:28:28;;;;;;;2.47;0.68;;;21.70;59.80;;;;;;5073321;28;20021;-77
2021/05/11 15:30:54;;;;;;;3.35;0.77;;;21.70;59.90;;;;;;5074390;28;20174;-78
2021/05/11 15:33:20;;;;;;;1.52;0.50;;;21.70;59.90;;;;;;5074099;28;20097;-79
2021/05/11 15:35:45;;;;;;;3.33;0.40;;;21.70;59.90;;;;;;5073562;28;20029;-79
2021/05/11 15:38:12;;;;;;;2.10;0.68;;;21.70;59.90;;;;;;5072950;28;20029;-79
2021/05/11 15:40:41;;;;;;;3.03;0.50;;;21.70;59.90;;;;;;5073428;28;20067;-79
2021/05/11 15:43:08;;;;;;;1.60;0.47;;;21.70;59.90;;;;;;5072617;28;20393;-78
2021/05/11 15:45:35;;;;;;;2.70;0.60;;;21.60;59.90;;;;;;5073732;28;20181;-78
2021/05/11 15:48:02;;;;;;;2.05;0.60;;;21.70;60.00;;;;;;5071942;28;20029;-77
2021/05/11 15:50:36;;;;;;;3.00;0.60;;;21.60;60.10;;;;;;5072219;28;20032;-77
2021/05/11 15:53:05;;;;;;;3.10;0.52;;;21.60;60.20;;;;;;5071784;28;20024;-79
2021/05/11 15:55:32;;;;;;;1.60;0.55;;;21.60;60.20;;;;;;5073740;28;20029;-79
2021/05/11 15:57:58;;;;;;;1.20;0.40;;;21.50;60.20;;;;;;5073801;28;20366;-79
2021/05/11 16:00:24;;;;;;;1.35;0.43;;;21.50;60.30;;;;;;5073464;28;20090;-79
2021/05/11 16:02:50;;;;;;;2.08;0.60;;;21.50;60.30;;;;;;5072402;28;20075;-79
2021/05/11 16:05:20;;;;;;;1.13;0.50;;;21.50;60.40;;;;;;5072027;28;20036;-79
2021/05/11 16:07:46;;;;;;;1.38;0.50;;;21.50;60.50;;;;;;5073470;28;20033;-80
2021/05/11 16:10:12;;;;;;;1.25;0.50;;;21.40;60.50;;;;;;5073873;28;20020;-79
2021/05/11 16:12:38;;;;;;;2.42;0.60;;;21.40;60.60;;;;;;5072712;28;20056;-80
2021/05/11 16:15:13;;;;;;;1.60;0.50;;;21.40;60.80;;;;;;5071112;28;20086;-80
2021/05/11 16:17:39;;;;;;;2.08;0.60;;;21.30;60.80;;;;;;5083211;28;20059;-79
2021/05/11 16:20:07;;;;;;;2.72;0.57;;;21.30;61.00;;;;;;5093252;28;20036;-79
2021/05/11 16:22:33;;;;;;;2.05;0.60;;;21.30;61.30;;;;;;5073993;28;20024;-79
2021/05/11 16:24:59;;;;;;;2.38;0.68;;;21.30;61.40;;;;;;5072911;28;20028;-78
2021/05/11 16:27:25;;;;;;;5.57;0.70;;;21.30;61.70;;;;;;5070841;28;20025;-79
2021/05/11 16:29:51;;;;;;;4.18;1.02;;;21.30;61.80;;;;;;5073253;28;20032;-79
2021/05/11 16:32:17;;;;;;;2.75;0.60;;;21.30;61.80;;;;;;5072387;28;20468;-79
2021/05/11 16:34:43;;;;;;;2.50;0.70;;;21.30;62.00;;;;;;5073521;28;20025;-79
2021/05/11 16:37:10;;;;;;;1.08;0.50;;;21.20;62.20;;;;;;5072835;28;20540;-78
2021/05/11 16:39:36;;;;;;;2.45;0.60;;;21.20;62.40;;;;;;5071037;28;20081;-79
2021/05/11 16:42:03;;;;;;;3.03;0.65;;;21.20;62.70;;;;;;5072528;28;20035;-78
2021/05/11 16:44:29;;;;;;;6.68;0.60;;;21.10;62.80;;;;;;5072401;28;20027;-80
2021/05/11 16:46:54;;;;;;;4.45;0.68;;;21.20;63.00;;;;;;5072245;28;20028;-79
2021/05/11 16:49:20;;;;;;;1.77;0.50;;;21.20;63.10;;;;;;5071355;28;20020;-81
2021/05/11 16:51:46;;;;;;;2.42;0.50;;;21.20;63.30;;;;;;5070046;28;20025;-79
2021/05/11 16:54:12;;;;;;;5.15;0.80;;;21.20;63.40;;;;;;5072691;28;20498;-79
2021/05/11 16:56:37;;;;;;;4.05;0.70;;;21.20;63.60;;;;;;5071381;28;20032;-79
2021/05/11 16:59:04;;;;;;;9.23;1.25;;;21.20;63.60;;;;;;5071708;28;20382;-77
2021/05/11 17:01:30;;;;;;;3.55;0.90;;;21.20;63.70;;;;;;5071850;28;20124;-79
2021/05/11 17:03:56;;;;;;;3.25;0.90;;;21.20;63.80;;;;;;5071530;28;20066;-77
2021/05/11 17:06:22;;;;;;;3.58;0.80;;;21.20;63.90;;;;;;5071846;28;20041;-77
2021/05/11 17:08:48;;;;;;;1.90;0.70;;;21.20;63.80;;;;;;5071903;28;20021;-79
2021/05/11 17:11:14;;;;;;;4.63;1.25;;;21.20;64.20;;;;;;5071219;28;20020;-78
2021/05/11 17:13:40;;;;;;;6.25;1.23;;;21.20;64.20;;;;;;5071402;28;20024;-78
2021/05/11 17:16:10;;;;;;;2.00;0.70;;;21.20;65.40;;;;;;5071725;28;20093;-77
2021/05/11 17:18:37;;;;;;;2.42;0.95;;;21.10;65.10;;;;;;5072073;28;20032;-78
2021/05/11 17:21:08;;;;;;;3.83;1.02;;;21.10;65.70;;;;;;5071302;28;20095;-78
2021/05/11 17:23:34;;;;;;;3.15;1.02;;;21.10;65.40;;;;;;5071530;28;20039;-78
2021/05/11 17:26:00;;;;;;;2.80;1.30;;;21.10;65.80;;;;;;5071703;28;20058;-79
2021/05/11 17:28:29;;;;;;;3.33;0.93;;;21.10;66.20;;;;;;5070952;28;20024;-79